Time;durP1;ratioP1;P1;durP2;ratioP2;P2;SDS_P1;SDS_P2;PMS_P1;PMS_P2;Temp;Humidity;BMP_temperature;BMP_pressure;BME280_temperature;BME280_humidity;BME280_pressure;Samples;Min_cycle;Max_cycle;Signal;HPM_P1;HPM_P2
2023/07/16 00:00:12;;;;;;;6.15;2.50;;;;;;;15.84;100.00;100816.19;4954187;29;20063;-74
2023/07/16 00:02:38;;;;;;;11.93;2.75;;;;;;;15.71;100.00;100807.75;4953330;28;20031;-79
2023/07/16 00:05:09;;;;;;;11.32;2.60;;;;;;;15.66;100.00;100822.28;4937675;29;20031;-74
2023/07/16 00:07:35;;;;;;;9.23;2.80;;;;;;;15.58;100.00;100808.91;4918040;29;20119;-79
2023/07/16 00:10:00;;;;;;;7.38;2.85;;;;;;;15.62;100.00;100818.25;4927183;29;20184;-74
2023/07/16 00:12:26;;;;;;;8.90;2.53;;;;;;;15.54;100.00;100815.44;4942352;29;20142;-80
2023/07/16 00:14:53;;;;;;;17.73;2.80;;;;;;;15.47;100.00;100821.50;4954132;29;20039;-74
2023/07/16 00:17:18;;;;;;;9.57;2.80;;;;;;;15.46;100.00;100820.66;4952749;29;20428;-75
2023/07/16 00:19:44;;;;;;;7.68;2.65;;;;;;;15.42;100.00;100827.22;4950457;29;20031;-81
2023/07/16 00:22:10;;;;;;;10.18;2.97;;;;;;;15.36;100.00;100831.31;4952396;29;20399;-80
2023/07/16 00:24:35;;;;;;;8.45;3.03;;;;;;;15.36;100.00;100825.16;4953351;29;20031;-80
2023/07/16 00:27:01;;;;;;;7.18;2.47;;;;;;;15.35;100.00;100826.16;4954552;29;20463;-81
2023/07/16 00:29:26;;;;;;;10.02;3.08;;;;;;;15.29;100.00;100830.22;4952374;28;20218;-75
2023/07/16 00:31:52;;;;;;;7.45;2.80;;;;;;;15.33;100.00;100822.81;4952933;29;20022;-80
2023/07/16 00:34:17;;;;;;;8.30;2.78;;;;;;;15.33;100.00;100826.28;4936414;29;20110;-75
2023/07/16 00:36:43;;;;;;;8.45;3.33;;;;;;;15.33;100.00;100828.09;4952498;29;20039;-78
2023/07/16 00:39:09;;;;;;;6.43;2.45;;;;;;;15.31;100.00;100827.41;4950330;29;20105;-80
2023/07/16 00:41:34;;;;;;;10.02;2.88;;;;;;;15.28;100.00;100838.31;4953313;29;20031;-80
2023/07/16 00:43:59;;;;;;;7.20;3.00;;;;;;;15.34;100.00;100829.78;4952520;29;20043;-80
2023/07/16 00:46:25;;;;;;;9.13;2.97;;;;;;;15.30;100.00;100831.88;4951863;29;20027;-80
2023/07/16 00:48:51;;;;;;;8.48;2.80;;;;;;;15.26;100.00;100827.00;4952439;29;20476;-80
2023/07/16 00:51:17;;;;;;;11.20;2.65;;;;;;;15.29;100.00;100827.56;4952779;29;20503;-80
2023/07/16 00:53:43;;;;;;;8.80;3.40;;;;;;;15.21;100.00;100831.88;4952238;29;20023;-79
2023/07/16 00:56:10;;;;;;;10.63;2.78;;;;;;;15.21;100.00;100830.09;4945740;28;20040;-80
2023/07/16 00:58:35;;;;;;;11.30;3.72;;;;;;;15.19;100.00;100823.25;4950713;29;20507;-80
2023/07/16 01:01:00;;;;;;;8.98;3.17;;;;;;;15.19;100.00;100825.91;4952193;29;20053;-80
2023/07/16 01:03:26;;;;;;;10.57;3.17;;;;;;;15.15;100.00;100827.16;4951871;29;20058;-74
2023/07/16 01:06:04;;;;;;;8.13;3.42;;;;;;;15.12;100.00;100835.41;4951869;29;20058;-74
2023/07/16 01:08:47;;;;;;;8.35;2.90;;;;;;;15.14;100.00;100836.09;4952753;29;20041;-74
2023/07/16 01:11:13;;;;;;;8.75;3.28;;;;;;;15.14;100.00;100838.75;4951802;28;20059;-80
2023/07/16 01:13:39;;;;;;;9.70;2.90;;;;;;;15.15;100.00;100832.47;4949616;29;20042;-80
2023/07/16 01:16:05;;;;;;;8.10;3.45;;;;;;;15.11;100.00;100831.09;4935562;29;20122;-80
2023/07/16 01:18:30;;;;;;;8.32;3.15;;;;;;;15.05;100.00;100830.69;4936279;29;21047;-74
2023/07/16 01:20:56;;;;;;;12.60;3.53;;;;;;;15.11;100.00;100831.09;4950695;29;20045;-74
2023/07/16 01:23:40;;;;;;;6.70;3.10;;;;;;;15.10;100.00;100829.41;4950509;29;20066;-78
2023/07/16 01:26:32;;;;;;;9.50;3.45;;;;;;;15.03;100.00;100829.16;4952654;29;20105;-80
2023/07/16 01:29:29;;;;;;;8.90;3.40;;;;;;;15.07;100.00;100829.69;4944285;29;20038;-74
2023/07/16 01:31:56;;;;;;;13.20;3.83;;;;;;;15.04;100.00;100830.81;4946030;29;20083;-80
2023/07/16 01:34:23;;;;;;;11.45;3.40;;;;;;;15.04;100.00;100826.34;4935196;29;20035;-74
2023/07/16 01:36:49;;;;;;;9.32;3.30;;;;;;;15.05;100.00;100825.38;4935117;29;20073;-74
2023/07/16 01:39:15;;;;;;;9.55;3.47;;;;;;;15.03;100.00;100824.69;4952732;28;20027;-80
2023/07/16 01:41:40;;;;;;;9.82;3.63;;;;;;;15.01;100.00;100826.66;4951203;29;20057;-80
2023/07/16 01:44:06;;;;;;;9.15;3.40;;;;;;;15.04;100.00;100826.34;4953233;29;20038;-80
2023/07/16 01:46:32;;;;;;;10.27;3.67;;;;;;;15.03;100.00;100827.34;4930871;29;20082;-80
2023/07/16 01:48:57;;;;;;;11.38;3.72;;;;;;;15.02;100.00;100823.03;4927549;29;20036;-80
2023/07/16 01:51:23;;;;;;;8.30;3.30;;;;;;;14.99;100.00;100825.13;4947565;29;20058;-80
2023/07/16 01:53:48;;;;;;;9.18;3.75;;;;;;;14.96;100.00;100831.53;4936582;29;20023;-79
2023/07/16 01:56:13;;;;;;;7.97;3.75;;;;;;;14.97;100.00;100825.25;4941756;29;20031;-79
2023/07/16 01:58:39;;;;;;;7.95;3.67;;;;;;;14.97;100.00;100821.78;4933184;29;20079;-74
2023/07/16 02:01:04;;;;;;;10.05;4.03;;;;;;;14.97;100.00;100819.97;4933591;29;20111;-74
2023/07/16 02:03:30;;;;;;;8.05;3.92;;;;;;;14.99;100.00;100828.59;4939446;29;20031;-80
2023/07/16 02:05:56;;;;;;;9.80;4.30;;;;;;;15.00;100.00;100822.31;4946505;29;20181;-80
2023/07/16 02:08:22;;;;;;;7.45;3.65;;;;;;;15.00;100.00;100816.19;4951032;29;20062;-80
2023/07/16 02:10:48;;;;;;;8.10;4.07;;;;;;;15.03;100.00;100829.16;4951923;28;20059;-74
2023/07/16 02:13:15;;;;;;;8.38;3.85;;;;;;;15.02;100.00;100838.06;4952171;29;20513;-80
2023/07/16 02:15:40;;;;;;;10.77;3.80;;;;;;;15.03;100.00;100826.50;4939872;29;20543;-79
2023/07/16 02:18:06;;;;;;;10.20;4.32;;;;;;;15.03;100.00;100827.34;4938555;29;20031;-78
2023/07/16 02:20:32;;;;;;;11.00;4.43;;;;;;;15.05;100.00;100829.84;4934059;29;20035;-82
2023/07/16 02:22:57;;;;;;;10.88;4.43;;;;;;;15.07;100.00;100832.34;4951407;29;20031;-80
2023/07/16 02:25:23;;;;;;;9.13;3.97;;;;;;;15.09;100.00;100828.56;4952333;29;20551;-81
2023/07/16 02:27:48;;;;;;;10.55;4.20;;;;;;;15.08;100.00;100839.31;4948967;29;20032;-80
2023/07/16 02:30:15;;;;;;;6.25;4.18;;;;;;;15.11;100.00;100839.88;4958235;28;20043;-81
2023/07/16 02:32:40;;;;;;;10.02;4.07;;;;;;;15.13;100.00;100842.38;4947414;29;20039;-81
2023/07/16 02:35:06;;;;;;;8.68;4.03;;;;;;;15.13;100.00;100848.50;4933578;29;20016;-83
2023/07/16 02:37:32;;;;;;;8.30;3.83;;;;;;;15.12;100.00;100848.66;4932385;29;20043;-82
2023/07/16 02:39:58;;;;;;;9.43;4.18;;;;;;;15.12;100.00;100846.00;4952483;29;20031;-82
2023/07/16 02:42:24;;;;;;;8.02;3.95;;;;;;;15.13;100.00;100850.31;4952700;29;20034;-75
2023/07/16 02:44:49;;;;;;;11.57;4.05;;;;;;;15.12;100.00;100853.97;4936447;29;20032;-82
2023/07/16 02:47:15;;;;;;;6.50;4.20;;;;;;;15.13;100.00;100845.03;4933818;29;20083;-82
2023/07/16 02:49:44;;;;;;;9.80;4.05;;;;;;;15.12;100.00;100849.50;4936557;29;20491;-81
2023/07/16 02:52:10;;;;;;;9.32;4.20;;;;;;;15.11;100.00;100844.34;4952775;28;20035;-81
2023/07/16 02:54:36;;;;;;;13.45;4.18;;;;;;;15.11;100.00;100860.25;4955905;29;20042;-81
2023/07/16 02:57:01;;;;;;;8.82;3.97;;;;;;;15.11;100.00;100852.28;4947376;29;20042;-81
2023/07/16 02:59:27;;;;;;;11.95;4.50;;;;;;;15.11;100.00;100855.78;4954721;29;20491;-82
2023/07/16 03:01:53;;;;;;;15.27;4.25;;;;;;;15.09;100.00;100859.53;4954890;29;20062;-82
2023/07/16 03:04:19;;;;;;;11.82;4.80;;;;;;;15.09;100.00;100864.84;4953666;29;20027;-82
2023/07/16 03:06:44;;;;;;;10.65;4.15;;;;;;;15.07;100.00;100861.50;4937177;29;20039;-76
2023/07/16 03:09:10;;;;;;;9.70;4.10;;;;;;;15.06;100.00;100863.31;4950278;29;20091;-76
2023/07/16 03:11:36;;;;;;;9.88;4.03;;;;;;;15.04;100.00;100863.47;4951559;29;20039;-82
2023/07/16 03:14:01;;;;;;;10.20;4.03;;;;;;;15.02;100.00;100861.94;4935936;29;20499;-83
2023/07/16 03:16:29;;;;;;;7.80;3.88;;;;;;;15.02;100.00;100869.88;4952559;29;20066;-76
2023/07/16 03:18:55;;;;;;;8.60;4.18;;;;;;;15.00;100.00;100872.66;4952855;29;20027;-75
2023/07/16 03:21:20;;;;;;;11.85;4.50;;;;;;;14.99;100.00;100876.31;4952318;29;20110;-82
2023/07/16 03:23:46;;;;;;;11.80;4.15;;;;;;;14.98;100.00;100877.28;4931692;29;20110;-76
2023/07/16 03:26:11;;;;;;;10.35;4.15;;;;;;;14.95;100.00;100882.88;4934475;29;20098;-76
2023/07/16 03:28:37;;;;;;;9.57;4.47;;;;;;;14.95;100.00;100879.38;4943912;29;20114;-82
2023/07/16 03:31:03;;;;;;;14.90;4.55;;;;;;;14.93;100.00;100882.16;4949763;29;20031;-76
2023/07/16 03:33:28;;;;;;;10.60;4.55;;;;;;;14.90;100.00;100893.03;4952737;29;20102;-81
2023/07/16 03:35:53;;;;;;;10.68;4.72;;;;;;;14.87;100.00;100882.72;4935675;29;20023;-76
2023/07/16 03:38:19;;;;;;;11.93;4.85;;;;;;;14.81;100.00;100885.94;4933732;29;20538;-80
2023/07/16 03:40:48;;;;;;;16.38;4.97;;;;;;;14.78;100.00;100888.84;4938970;29;20055;-80
2023/07/16 03:43:15;;;;;;;10.65;4.55;;;;;;;14.75;100.00;100891.78;4953960;29;20435;-80
2023/07/16 03:45:40;;;;;;;9.98;4.57;;;;;;;14.69;100.00;100890.53;4953348;29;20027;-75
2023/07/16 03:48:06;;;;;;;9.27;4.35;;;;;;;14.68;100.00;100893.31;4952835;29;20023;-82
2023/07/16 03:50:32;;;;;;;12.90;4.90;;;;;;;14.63;100.00;100891.09;4936147;29;20049;-82
2023/07/16 03:52:57;;;;;;;10.02;4.80;;;;;;;14.61;100.00;100897.50;4948717;28;20480;-82
2023/07/16 03:55:22;;;;;;;10.10;4.47;;;;;;;14.57;100.00;100901.41;4932582;29;20114;-82
2023/07/16 03:57:49;;;;;;;11.65;4.70;;;;;;;14.54;100.00;100906.97;4954478;29;20102;-74
2023/07/16 04:00:15;;;;;;;10.68;4.40;;;;;;;14.51;100.00;100904.59;4949390;29;20062;-81
2023/07/16 04:02:42;;;;;;;12.48;4.75;;;;;;;14.51;100.00;100912.53;4952261;28;20506;-74
2023/07/16 04:05:08;;;;;;;12.93;5.07;;;;;;;14.50;100.00;100905.56;4953846;29;20055;-74
2023/07/16 04:07:33;;;;;;;9.77;4.25;;;;;;;14.49;100.00;100914.50;4954489;29;20047;-82
2023/07/16 04:09:58;;;;;;;10.07;4.45;;;;;;;14.48;100.00;100915.47;4944427;29;20480;-81
2023/07/16 04:12:24;;;;;;;10.82;4.85;;;;;;;14.54;100.00;100917.56;4876314;29;1186818;-81
2023/07/16 04:14:55;;;;;;;13.40;4.90;;;;;;;14.90;99.62;100930.13;4925699;29;20043;-81
2023/07/16 04:17:21;;;;;;;14.93;4.90;;;;;;;15.46;95.76;100932.03;4933203;29;20145;-81
2023/07/16 04:19:46;;;;;;;14.07;5.00;;;;;;;15.54;92.95;100924.19;4935748;29;20098;-82
2023/07/16 04:22:11;;;;;;;16.10;5.07;;;;;;;15.42;92.45;100935.09;4934967;29;20461;-74
2023/07/16 04:24:37;;;;;;;9.70;4.68;;;;;;;15.45;92.66;100945.44;4933350;29;20506;-81
2023/07/16 04:27:03;;;;;;;11.55;4.63;;;;;;;15.92;91.06;100952.44;4917529;29;20035;-81
2023/07/16 04:29:28;;;;;;;11.50;4.97;;;;;;;15.83;89.55;100945.38;4923298;29;20403;-75
2023/07/16 04:31:54;;;;;;;11.15;5.28;;;;;;;15.76;89.42;100948.75;4924579;29;20059;-82
2023/07/16 04:34:19;;;;;;;11.68;5.38;;;;;;;15.65;90.52;100947.09;4932774;29;20063;-82
2023/07/16 04:36:44;;;;;;;12.63;5.10;;;;;;;15.74;91.22;100956.84;4917294;29;20499;-83
2023/07/16 04:39:10;;;;;;;8.80;4.90;;;;;;;15.56;92.35;100963.81;4933731;29;20035;-82
2023/07/16 04:41:35;;;;;;;15.60;5.03;;;;;;;15.34;92.71;100963.19;4934631;29;20500;-82
2023/07/16 04:44:01;;;;;;;11.27;5.25;;;;;;;15.33;93.23;100969.47;4933561;29;20254;-75
2023/07/16 04:46:26;;;;;;;9.88;5.32;;;;;;;15.19;92.50;100967.22;4932763;29;20079;-81
2023/07/16 04:48:51;;;;;;;11.85;5.40;;;;;;;15.14;93.71;100968.63;4921699;29;20038;-81
2023/07/16 04:51:17;;;;;;;9.85;5.00;;;;;;;15.03;92.47;100970.44;4933527;29;20027;-74
2023/07/16 04:53:44;;;;;;;15.02;5.75;;;;;;;14.95;94.05;100978.25;4933444;29;20035;-81
2023/07/16 04:56:13;;;;;;;11.63;5.03;;;;;;;14.95;95.17;100980.06;4934828;29;20039;-81
2023/07/16 04:58:39;;;;;;;9.60;5.63;;;;;;;14.92;95.28;100978.53;4930706;29;20066;-81
2023/07/16 05:01:09;;;;;;;10.48;5.85;;;;;;;14.89;94.69;100981.44;4931127;29;20724;-81
2023/07/16 05:03:35;;;;;;;12.35;5.32;;;;;;;14.87;95.88;100980.75;4931741;29;20050;-81
2023/07/16 05:06:01;;;;;;;12.43;5.50;;;;;;;14.84;96.70;100986.34;4929205;29;20035;-82
2023/07/16 05:08:26;;;;;;;13.25;5.70;;;;;;;14.85;95.31;100977.41;4934175;29;20028;-82
2023/07/16 05:10:52;;;;;;;14.60;5.78;;;;;;;14.85;94.24;100980.06;4939187;29;20039;-74
2023/07/16 05:13:17;;;;;;;16.05;6.45;;;;;;;14.84;93.83;100978.38;4952145;29;20039;-74
2023/07/16 05:15:44;;;;;;;13.70;5.43;;;;;;;14.85;93.59;100979.22;4951401;28;20412;-74
2023/07/16 05:18:09;;;;;;;14.05;6.70;;;;;;;14.84;95.21;100981.03;4952808;29;20047;-81
2023/07/16 05:20:35;;;;;;;15.90;5.85;;;;;;;14.83;93.53;100987.31;4951390;29;20035;-82
2023/07/16 05:23:00;;;;;;;11.20;5.75;;;;;;;14.84;93.71;100983.69;4935929;29;20089;-80
2023/07/16 05:25:25;;;;;;;12.05;5.60;;;;;;;14.89;92.13;100991.22;4931699;29;20114;-81
2023/07/16 05:27:51;;;;;;;15.93;6.53;;;;;;;14.90;93.69;100992.88;4931994;29;20027;-81
2023/07/16 05:30:16;;;;;;;17.77;6.15;;;;;;;14.94;92.56;100989.81;4952300;29;20027;-81
2023/07/16 05:32:42;;;;;;;11.07;6.07;;;;;;;14.98;93.07;100985.09;4934049;29;20554;-81
2023/07/16 05:35:10;;;;;;;13.20;6.45;;;;;;;15.00;91.41;100994.56;4950997;29;20645;-81
2023/07/16 05:37:38;;;;;;;11.88;5.93;;;;;;;15.02;91.78;100989.97;4936655;29;20133;-81
2023/07/16 05:40:04;;;;;;;13.40;5.90;;;;;;;15.05;91.01;100992.34;4952318;29;20392;-81
2023/07/16 05:42:29;;;;;;;12.88;6.40;;;;;;;15.12;90.35;100994.41;4951348;29;20047;-81
2023/07/16 05:44:55;;;;;;;14.77;6.35;;;;;;;15.15;90.83;100996.78;4950905;29;20029;-80
2023/07/16 05:47:20;;;;;;;13.30;6.32;;;;;;;15.19;90.18;101008.78;4951562;29;20026;-80
2023/07/16 05:49:46;;;;;;;17.40;6.95;;;;;;;15.20;92.55;101000.69;4951760;29;20027;-81
2023/07/16 05:52:11;;;;;;;13.70;6.35;;;;;;;15.27;89.88;101016.91;4934461;29;20083;-80
2023/07/16 05:54:37;;;;;;;12.13;6.32;;;;;;;15.30;89.23;101006.03;4932266;29;20131;-80
2023/07/16 05:57:02;;;;;;;10.93;6.60;;;;;;;15.35;88.27;101025.81;4930819;29;20391;-80
2023/07/16 05:59:28;;;;;;;13.10;6.25;;;;;;;15.41;87.93;101019.13;4946739;29;20092;-80
2023/07/16 06:01:53;;;;;;;13.55;6.70;;;;;;;15.46;88.46;101022.19;4949182;29;20031;-80
2023/07/16 06:04:18;;;;;;;19.02;6.65;;;;;;;15.53;88.33;101027.75;4951353;29;20124;-81
2023/07/16 06:06:44;;;;;;;13.70;6.80;;;;;;;15.57;87.08;101034.47;4951745;29;20106;-81
2023/07/16 06:09:09;;;;;;;12.77;6.90;;;;;;;15.60;85.74;101037.69;4946557;29;20040;-80
2023/07/16 06:11:35;;;;;;;13.10;6.70;;;;;;;15.64;87.50;101040.94;4941287;29;20142;-80
2023/07/16 06:14:00;;;;;;;12.38;6.80;;;;;;;15.69;86.89;101032.53;4950185;29;20027;-79
2023/07/16 06:16:25;;;;;;;15.85;6.90;;;;;;;15.74;86.39;101035.59;4933903;29;20498;-73
2023/07/16 06:18:51;;;;;;;12.25;6.30;;;;;;;15.74;85.38;101035.59;4950466;29;20030;-80
2023/07/16 06:21:18;;;;;;;17.33;7.07;;;;;;;15.79;86.04;101038.66;4951769;29;20417;-80
2023/07/16 06:23:43;;;;;;;14.85;6.70;;;;;;;15.84;85.03;101042.56;4951129;29;20031;-79
2023/07/16 06:26:08;;;;;;;16.00;7.10;;;;;;;15.89;85.37;101045.63;4934639;29;20019;-79
2023/07/16 06:28:35;;;;;;;16.08;6.97;;;;;;;15.94;85.25;101042.53;4950570;29;20495;-80
2023/07/16 06:31:01;;;;;;;10.73;6.95;;;;;;;15.96;86.92;101038.75;4951120;29;20035;-80
2023/07/16 06:33:27;;;;;;;15.30;7.07;;;;;;;16.04;85.85;101053.97;4952651;29;20035;-80
2023/07/16 06:35:52;;;;;;;16.45;7.05;;;;;;;16.06;83.54;101046.72;4953312;29;20023;-74
2023/07/16 06:38:17;;;;;;;12.85;7.07;;;;;;;16.10;82.86;101053.41;4951671;28;20381;-80
2023/07/16 06:40:48;;;;;;;13.90;6.65;;;;;;;16.14;81.89;101054.78;4952249;29;20031;-80
2023/07/16 06:43:13;;;;;;;13.77;6.60;;;;;;;16.21;85.28;101061.19;4936343;29;20118;-81
2023/07/16 06:45:39;;;;;;;14.18;6.68;;;;;;;16.28;82.45;101064.94;4951256;28;20114;-74
2023/07/16 06:48:05;;;;;;;13.18;7.22;;;;;;;16.36;83.97;101058.88;4943379;29;20444;-80
2023/07/16 06:50:34;;;;;;;12.98;6.85;;;;;;;16.43;82.65;101061.81;4952825;29;20110;-79
2023/07/16 06:53:01;;;;;;;15.88;7.95;;;;;;;16.49;82.40;101066.56;4951405;29;20499;-79
2023/07/16 06:55:27;;;;;;;12.73;6.78;;;;;;;16.58;83.43;101057.69;4949963;29;20024;-80
2023/07/16 06:57:52;;;;;;;15.18;7.40;;;;;;;16.67;81.59;101066.63;4948861;28;20058;-78
2023/07/16 07:00:17;;;;;;;14.50;7.43;;;;;;;16.73;82.10;101074.84;4952620;29;20062;-79
2023/07/16 07:02:43;;;;;;;15.05;7.30;;;;;;;16.80;81.08;101062.63;4951959;29;20054;-81
2023/07/16 07:05:08;;;;;;;16.30;7.97;;;;;;;16.92;79.74;101066.78;4945104;29;20019;-81
2023/07/16 07:07:34;;;;;;;13.82;7.38;;;;;;;17.05;79.21;101066.41;4959985;28;20035;-79
2023/07/16 07:09:59;;;;;;;17.83;7.45;;;;;;;17.16;77.87;101082.13;4952845;29;20042;-79
2023/07/16 07:12:25;;;;;;;14.20;7.40;;;;;;;17.28;76.87;101088.09;4954826;28;20070;-78
2023/07/16 07:14:50;;;;;;;18.52;7.60;;;;;;;17.43;76.58;101086.56;4958648;29;20086;-80
2023/07/16 07:17:15;;;;;;;13.25;7.63;;;;;;;17.62;76.41;101090.09;4960316;29;20105;-79
2023/07/16 07:19:42;;;;;;;13.98;6.78;;;;;;;17.71;74.94;101094.50;4952729;29;20031;-78
2023/07/16 07:22:08;;;;;;;14.80;7.55;;;;;;;17.96;76.37;101090.19;4941149;29;20051;-79
2023/07/16 07:24:33;;;;;;;11.70;6.93;;;;;;;18.23;74.31;101089.22;4956546;29;20028;-79
2023/07/16 07:26:59;;;;;;;13.07;7.18;;;;;;;18.40;73.46;101097.16;4957433;29;20031;-80
2023/07/16 07:29:24;;;;;;;12.40;6.78;;;;;;;18.55;71.26;101101.91;4957716;28;20044;-81
2023/07/16 07:31:50;;;;;;;14.93;7.03;;;;;;;18.56;70.24;101095.59;4960838;28;20111;-79
2023/07/16 07:34:15;;;;;;;13.65;7.18;;;;;;;18.68;71.82;101097.81;4934544;29;20031;-80
2023/07/16 07:36:41;;;;;;;13.10;6.93;;;;;;;18.50;70.74;101091.72;4948312;28;20031;-74
2023/07/16 07:39:14;;;;;;;15.73;7.13;;;;;;;18.46;71.80;101101.03;4950877;28;20131;-74
2023/07/16 07:41:40;;;;;;;12.50;6.88;;;;;;;18.40;71.12;101090.97;4954030;29;20443;-77
2023/07/16 07:44:05;;;;;;;17.63;7.35;;;;;;;18.61;71.18;101101.25;4956599;29;20043;-77
2023/07/16 07:46:30;;;;;;;12.85;6.93;;;;;;;18.89;70.60;101101.94;4956643;28;20028;-74
2023/07/16 07:48:56;;;;;;;13.90;6.78;;;;;;;19.13;69.22;101099.31;4955028;29;20027;-77
2023/07/16 07:51:21;;;;;;;15.45;6.78;;;;;;;19.36;68.75;101100.38;4958188;28;20095;-74
2023/07/16 07:53:47;;;;;;;15.07;6.90;;;;;;;19.48;68.67;101092.06;4952245;29;20024;-77
2023/07/16 07:56:14;;;;;;;13.93;6.70;;;;;;;19.55;68.28;101098.41;4927463;29;20114;-79
2023/07/16 07:58:40;;;;;;;17.13;6.70;;;;;;;19.58;67.28;101103.44;4955987;28;20066;-74
2023/07/16 08:01:08;;;;;;;14.13;6.90;;;;;;;19.69;66.69;101105.78;4956762;28;20388;-78
2023/07/16 08:03:35;;;;;;;14.82;6.32;;;;;;;19.83;66.42;101107.78;4976040;28;20061;-74
2023/07/16 08:06:00;;;;;;;11.13;6.40;;;;;;;20.11;66.04;101105.59;4954496;28;20038;-78
2023/07/16 08:08:26;;;;;;;12.63;6.35;;;;;;;20.19;64.09;101102.09;4956142;28;20811;-78
2023/07/16 08:10:53;;;;;;;11.80;6.50;;;;;;;20.27;64.40;101110.06;4950658;28;20428;-78
2023/07/16 08:13:18;;;;;;;9.57;6.07;;;;;;;20.42;64.83;101105.75;4929255;28;20034;-78
2023/07/16 08:15:44;;;;;;;11.57;6.18;;;;;;;20.65;63.63;101117.38;4959136;28;20069;-78
2023/07/16 08:18:11;;;;;;;11.43;6.13;;;;;;;20.79;62.27;101102.41;4968169;28;20034;-78
2023/07/16 08:20:36;;;;;;;10.82;6.00;;;;;;;20.94;61.43;101103.38;4966064;28;20368;-78
2023/07/16 08:23:03;;;;;;;12.13;6.38;;;;;;;21.06;61.30;101109.16;4973672;28;20114;-78
2023/07/16 08:25:29;;;;;;;12.07;5.57;;;;;;;21.25;61.51;101106.09;4957894;28;20078;-78
2023/07/16 08:27:54;;;;;;;10.25;5.75;;;;;;;21.42;59.18;101106.81;4963533;28;20391;-79
2023/07/16 08:30:20;;;;;;;11.25;6.22;;;;;;;21.52;58.96;101104.72;4969426;28;20026;-78
2023/07/16 08:32:45;;;;;;;13.70;6.40;;;;;;;21.46;58.64;101101.94;4954395;28;20058;-79
2023/07/16 08:35:16;;;;;;;11.82;5.78;;;;;;;21.43;58.11;101103.13;4974100;28;20023;-73
2023/07/16 08:37:44;;;;;;;12.82;5.30;;;;;;;21.13;58.83;101114.63;4973698;28;20105;-78
2023/07/16 08:40:11;;;;;;;13.93;5.55;;;;;;;20.84;59.70;101126.00;4967316;28;20118;-79
2023/07/16 08:42:38;;;;;;;14.27;5.50;;;;;;;20.75;59.83;101113.66;4950099;28;20034;-79
2023/07/16 08:45:06;;;;;;;9.48;5.68;;;;;;;21.18;60.42;101105.06;4952171;28;20081;-79
2023/07/16 08:47:32;;;;;;;11.10;5.50;;;;;;;20.98;58.41;101119.91;4965615;28;20041;-79
2023/07/16 08:49:57;;;;;;;11.10;5.60;;;;;;;20.69;59.23;101117.84;4961998;28;20379;-74
2023/07/16 08:52:26;;;;;;;10.18;5.25;;;;;;;20.51;59.39;101130.63;4931639;28;20467;-79
2023/07/16 08:54:51;;;;;;;14.68;5.82;;;;;;;20.67;59.92;101127.06;4958597;28;20026;-79
2023/07/16 08:57:18;;;;;;;10.77;5.30;;;;;;;21.01;59.82;101129.44;4969506;28;20037;-74
2023/07/16 08:59:46;;;;;;;9.25;5.75;;;;;;;21.27;58.48;101130.00;5043341;23;20121;-79
2023/07/16 09:02:13;;;;;;;11.40;5.30;;;;;;;21.53;58.03;101133.16;5022926;28;20346;-80
2023/07/16 09:04:38;;;;;;;10.93;5.68;;;;;;;21.71;58.10;101130.22;5036404;28;20392;-79
2023/07/16 09:07:04;;;;;;;7.90;4.95;;;;;;;21.49;57.85;101136.38;5048998;28;20017;-80
2023/07/16 09:09:30;;;;;;;11.02;5.57;;;;;;;21.16;58.78;101136.53;5041163;28;20158;-80
2023/07/16 09:11:55;;;;;;;9.75;5.40;;;;;;;21.13;60.41;101152.94;5033458;28;20029;-80
2023/07/16 09:14:21;;;;;;;9.68;4.88;;;;;;;21.07;60.22;101140.25;5041458;28;20056;-80
2023/07/16 09:16:51;;;;;;;8.63;5.32;;;;;;;21.14;58.32;101141.22;5025995;28;20075;-80
2023/07/16 09:19:18;;;;;;;8.70;4.90;;;;;;;21.38;58.70;101131.44;5014856;28;20060;-80
2023/07/16 09:21:49;;;;;;;11.23;5.30;;;;;;;21.75;57.53;101136.03;5046486;28;20013;-79
2023/07/16 09:24:14;;;;;;;12.20;5.35;;;;;;;21.68;56.70;101146.63;5039604;28;20385;-80
2023/07/16 09:26:51;;;;;;;9.00;4.63;;;;;;;21.31;57.86;101143.88;5029292;28;20017;-80
2023/07/16 09:29:17;;;;;;;10.18;5.47;;;;;;;21.06;58.35;101149.31;5038303;28;20104;-80
2023/07/16 09:32:12;;;;;;;11.65;5.68;;;;;;;21.06;59.74;101143.13;5043842;28;20104;-79
2023/07/16 09:34:37;;;;;;;9.85;5.07;;;;;;;21.22;60.58;101141.22;5008856;28;20393;-81
2023/07/16 09:37:05;;;;;;;13.30;5.50;;;;;;;21.29;59.96;101146.72;5037797;28;20033;-81
2023/07/16 09:39:34;;;;;;;9.38;5.00;;;;;;;21.22;59.08;101151.91;5043535;28;20037;-81
2023/07/16 09:42:02;;;;;;;9.25;5.13;;;;;;;21.02;59.04;101156.00;5031893;28;20037;-81
2023/07/16 09:44:27;;;;;;;9.05;5.00;;;;;;;20.88;59.09;101152.22;5023499;28;20870;-80
2023/07/16 09:46:53;;;;;;;9.10;5.13;;;;;;;20.94;60.44;101161.41;5022495;28;20123;-80
2023/07/16 09:49:18;;;;;;;12.88;5.43;;;;;;;20.94;59.78;101166.75;5045335;28;20037;-80
2023/07/16 09:51:45;;;;;;;11.18;5.47;;;;;;;20.88;58.62;101178.16;5042146;28;20021;-80
2023/07/16 09:54:15;;;;;;;11.05;5.32;;;;;;;20.84;60.08;101168.81;5023166;28;20420;-80
2023/07/16 09:56:46;;;;;;;10.02;4.78;;;;;;;21.13;59.70;101173.50;5038285;28;20025;-81
2023/07/16 09:59:15;;;;;;;11.63;5.23;;;;;;;21.40;59.58;101173.09;5042621;28;20060;-81
2023/07/16 10:01:44;;;;;;;11.38;4.75;;;;;;;21.33;58.37;101173.97;5004748;28;20132;-81
2023/07/16 10:04:19;;;;;;;11.10;4.90;;;;;;;21.23;59.37;101172.34;5036351;28;20079;-80
2023/07/16 10:06:58;;;;;;;11.15;4.88;;;;;;;21.32;59.10;101180.34;5048374;28;20103;-80
2023/07/16 10:09:57;;;;;;;9.32;5.00;;;;;;;21.31;58.31;101178.66;5027475;28;20525;-80
2023/07/16 10:12:26;;;;;;;8.38;5.05;;;;;;;21.27;58.48;101184.38;5009019;28;20049;-81
2023/07/16 10:15:02;;;;;;;11.23;5.20;;;;;;;21.21;58.49;101192.19;5023643;28;20025;-80
2023/07/16 10:17:30;;;;;;;9.95;4.90;;;;;;;21.24;58.00;101194.59;5040731;28;20393;-79
2023/07/16 10:20:07;;;;;;;10.32;5.10;;;;;;;21.27;59.16;101186.22;5045515;28;20505;-80
2023/07/16 10:22:33;;;;;;;11.57;5.50;;;;;;;21.20;57.59;101201.25;5037626;28;20046;-80
2023/07/16 10:25:00;;;;;;;8.82;5.00;;;;;;;21.25;58.49;101209.66;5049761;28;20036;-82
2023/07/16 10:27:30;;;;;;;11.25;5.32;;;;;;;21.37;58.75;101199.38;5038179;28;20040;-81
2023/07/16 10:29:56;;;;;;;10.32;5.50;;;;;;;21.32;58.70;101201.75;5011451;28;20017;-82
2023/07/16 10:32:21;;;;;;;7.95;5.00;;;;;;;21.42;59.46;101208.53;5033103;28;20027;-82
2023/07/16 10:34:47;;;;;;;8.25;4.93;;;;;;;21.55;57.36;101192.72;5049699;28;20021;-81
2023/07/16 10:37:12;;;;;;;7.82;4.85;;;;;;;21.89;56.90;101200.38;5033329;28;20589;-81
2023/07/16 10:39:51;;;;;;;8.73;4.28;;;;;;;22.02;57.05;101198.97;5040454;28;20427;-81
2023/07/16 10:42:18;;;;;;;9.00;4.97;;;;;;;22.14;56.02;101197.56;5037787;28;20029;-81
2023/07/16 10:44:44;;;;;;;7.55;4.20;;;;;;;22.07;53.78;101197.44;5048977;28;20020;-78
2023/07/16 10:47:19;;;;;;;12.43;4.53;;;;;;;22.08;55.21;101198.28;5049416;28;20029;-80
2023/07/16 10:49:44;;;;;;;8.85;4.18;;;;;;;21.88;54.90;101208.59;5049340;28;20025;-80
2023/07/16 10:52:09;;;;;;;9.45;4.32;;;;;;;21.76;54.97;101205.50;5042607;28;20520;-80
2023/07/16 10:54:35;;;;;;;8.13;4.63;;;;;;;21.78;55.41;101218.72;5033601;28;20053;-80
2023/07/16 10:57:00;;;;;;;10.43;4.63;;;;;;;21.74;56.59;101223.59;5033015;28;20037;-80
2023/07/16 10:59:26;;;;;;;8.43;4.43;;;;;;;21.72;55.47;101230.97;5029706;28;20612;-81
2023/07/16 11:01:51;;;;;;;9.40;4.32;;;;;;;21.50;55.68;101223.72;5013699;28;20158;-79
2023/07/16 11:04:16;;;;;;;7.13;4.25;;;;;;;21.39;56.30;101237.50;5040575;28;20036;-80
2023/07/16 11:06:42;;;;;;;7.80;4.88;;;;;;;21.28;57.42;101233.38;5029924;28;20777;-80
2023/07/16 11:09:11;;;;;;;7.15;4.55;;;;;;;21.32;58.11;101245.41;5021359;28;20143;-80
2023/07/16 11:11:36;;;;;;;9.60;5.35;;;;;;;21.25;57.74;101239.09;5022513;28;20025;-79
2023/07/16 11:14:06;;;;;;;12.68;5.05;;;;;;;21.19;59.33;101242.41;5051932;28;20060;-79